Time;durP1;ratioP1;P1;durP2;ratioP2;P2;SDS_P1;SDS_P2;PMS_P1;PMS_P2;Temp;Humidity;BMP_temperature;BMP_pressure;BME280_temperature;BME280_humidity;BME280_pressure;Samples;Min_cycle;Max_cycle;Signal;HPM_P1;HPM_P2
2023/07/25 00:00:26;;;;;;;7.68;3.08;;;12.80;99.90;;;;;;4951591;28;20050;-49
2023/07/25 00:02:52;;;;;;;10.68;3.85;;;12.70;99.90;;;;;;4950903;28;20159;-49
2023/07/25 00:05:18;;;;;;;13.23;3.65;;;12.70;99.90;;;;;;4952684;28;20402;-48
2023/07/25 00:07:44;;;;;;;8.90;3.53;;;12.70;99.90;;;;;;4950145;28;20042;-49
2023/07/25 00:10:10;;;;;;;7.50;3.28;;;12.70;99.90;;;;;;4953791;28;20047;-49
2023/07/25 00:12:36;;;;;;;11.07;3.60;;;12.70;99.90;;;;;;4952739;28;20045;-51
2023/07/25 00:15:03;;;;;;;8.57;3.25;;;12.70;99.90;;;;;;4952837;28;20046;-50
2023/07/25 00:17:29;;;;;;;6.40;3.00;;;12.70;99.90;;;;;;4952233;28;20039;-51
2023/07/25 00:19:54;;;;;;;10.45;3.20;;;12.70;99.90;;;;;;4943196;28;20059;-50
2023/07/25 00:22:20;;;;;;;10.27;3.72;;;12.70;99.90;;;;;;4950545;28;20050;-50
2023/07/25 00:24:46;;;;;;;10.60;3.35;;;12.70;99.90;;;;;;4956469;28;20082;-49
2023/07/25 00:27:12;;;;;;;12.65;3.30;;;12.70;99.90;;;;;;4955566;28;20102;-49
2023/07/25 00:29:37;;;;;;;9.98;3.35;;;12.70;99.90;;;;;;4953739;28;20085;-51
2023/07/25 00:32:04;;;;;;;14.75;3.25;;;12.70;99.90;;;;;;4951093;28;20953;-49
2023/07/25 00:34:29;;;;;;;10.73;3.67;;;12.80;99.90;;;;;;4950883;28;20043;-50
2023/07/25 00:36:55;;;;;;;8.55;2.90;;;12.80;99.90;;;;;;4951696;28;20097;-51
2023/07/25 00:39:21;;;;;;;7.75;3.15;;;12.80;99.90;;;;;;4950612;28;20055;-53
2023/07/25 00:41:46;;;;;;;6.57;3.20;;;12.80;99.90;;;;;;4965014;28;20058;-52
2023/07/25 00:44:12;;;;;;;7.68;3.28;;;12.80;99.90;;;;;;4947020;28;20050;-52
2023/07/25 00:46:39;;;;;;;9.02;3.40;;;12.80;99.90;;;;;;4944868;28;20565;-50
2023/07/25 00:49:06;;;;;;;9.00;3.25;;;12.80;99.90;;;;;;4952170;28;20102;-50
2023/07/25 00:51:32;;;;;;;7.85;3.00;;;12.80;99.90;;;;;;4951767;28;20093;-50
2023/07/25 00:53:58;;;;;;;11.10;3.40;;;12.80;99.90;;;;;;4950604;28;20677;-50
2023/07/25 00:56:24;;;;;;;6.97;2.90;;;12.80;99.90;;;;;;4950665;28;20661;-50
2023/07/25 00:58:49;;;;;;;9.15;2.92;;;12.80;99.90;;;;;;4948882;28;20047;-49
2023/07/25 01:01:15;;;;;;;7.28;3.20;;;12.80;99.90;;;;;;4951229;28;20073;-52
2023/07/25 01:03:41;;;;;;;11.25;3.72;;;12.80;99.90;;;;;;4950448;28;20499;-50
2023/07/25 01:06:15;;;;;;;5.85;3.03;;;12.80;99.90;;;;;;4948363;28;20051;-51
2023/07/25 01:09:01;;;;;;;6.10;3.08;;;12.80;99.90;;;;;;4949495;28;20193;-49
2023/07/25 01:11:28;;;;;;;9.35;3.58;;;12.80;99.90;;;;;;4948622;28;20062;-50
2023/07/25 01:13:53;;;;;;;8.43;3.00;;;12.80;99.90;;;;;;4945457;28;20047;-50
2023/07/25 01:16:25;;;;;;;9.23;3.08;;;12.80;99.90;;;;;;4942646;28;20043;-48
2023/07/25 01:18:52;;;;;;;9.35;3.72;;;12.80;99.90;;;;;;4946104;28;20091;-49
2023/07/25 01:21:20;;;;;;;10.35;3.65;;;12.80;99.90;;;;;;4944441;28;20460;-49
2023/07/25 01:23:46;;;;;;;8.05;3.70;;;12.80;99.90;;;;;;4942168;28;20057;-49
2023/07/25 01:26:12;;;;;;;9.77;3.50;;;12.80;99.90;;;;;;4946718;28;21444;-51
2023/07/25 01:28:37;;;;;;;10.63;3.42;;;12.80;99.90;;;;;;4942174;28;20035;-49
2023/07/25 01:31:04;;;;;;;10.70;3.65;;;12.90;99.90;;;;;;4947056;28;20043;-48
2023/07/25 01:33:30;;;;;;;9.80;3.40;;;12.80;99.90;;;;;;4942608;28;20626;-49
2023/07/25 01:35:56;;;;;;;9.77;3.65;;;12.90;99.90;;;;;;4942483;28;20042;-50
2023/07/25 01:38:21;;;;;;;8.15;3.22;;;12.90;99.90;;;;;;4941169;28;21469;-50
2023/07/25 01:40:47;;;;;;;8.68;3.53;;;12.90;99.90;;;;;;4943065;28;20745;-49
2023/07/25 01:43:13;;;;;;;8.55;3.50;;;12.90;99.90;;;;;;4927644;28;20047;-49
2023/07/25 01:45:38;;;;;;;9.18;3.80;;;12.90;99.90;;;;;;4937989;28;20043;-48
2023/07/25 01:48:04;;;;;;;10.43;3.30;;;12.90;99.90;;;;;;4939146;28;20051;-48
2023/07/25 01:50:30;;;;;;;12.25;3.55;;;12.90;99.90;;;;;;4944061;28;20173;-49
2023/07/25 01:52:56;;;;;;;8.35;3.70;;;13.00;99.90;;;;;;4942098;28;20042;-49
2023/07/25 01:55:22;;;;;;;9.02;3.47;;;13.00;99.90;;;;;;4944141;28;20098;-48
2023/07/25 01:57:47;;;;;;;7.10;3.50;;;13.00;99.90;;;;;;4945589;28;20496;-48
2023/07/25 02:00:13;;;;;;;9.35;3.50;;;13.00;99.90;;;;;;4941698;28;20093;-50
2023/07/25 02:02:39;;;;;;;7.80;3.45;;;13.00;99.90;;;;;;4941040;28;21036;-49
2023/07/25 02:05:05;;;;;;;9.05;3.78;;;13.00;99.90;;;;;;4945101;28;20055;-49
2023/07/25 02:07:31;;;;;;;14.40;3.50;;;13.00;99.90;;;;;;4943380;28;20075;-49
2023/07/25 02:09:57;;;;;;;10.48;3.75;;;13.00;99.90;;;;;;4940488;28;20125;-48
2023/07/25 02:12:23;;;;;;;12.40;3.65;;;13.00;99.90;;;;;;4940864;28;20507;-48
2023/07/25 02:14:49;;;;;;;12.32;3.50;;;13.00;99.90;;;;;;4935946;28;20122;-49
2023/07/25 02:17:14;;;;;;;10.93;3.30;;;13.00;99.90;;;;;;4944686;28;20793;-49
2023/07/25 02:19:40;;;;;;;12.57;3.60;;;13.00;99.90;;;;;;4944220;28;20066;-48
2023/07/25 02:22:06;;;;;;;11.40;3.22;;;13.10;99.90;;;;;;4945027;28;20500;-49
2023/07/25 02:24:32;;;;;;;10.35;3.05;;;13.10;99.90;;;;;;4939356;28;20660;-50
2023/07/25 02:26:57;;;;;;;10.18;3.55;;;13.10;99.90;;;;;;4946199;28;20062;-48
2023/07/25 02:29:23;;;;;;;12.10;3.22;;;13.10;99.90;;;;;;4944506;28;20467;-48
2023/07/25 02:31:49;;;;;;;10.77;3.30;;;13.10;99.90;;;;;;4944811;28;20573;-48
2023/07/25 02:34:16;;;;;;;7.53;3.40;;;13.10;99.90;;;;;;4947239;28;20040;-50
2023/07/25 02:36:42;;;;;;;10.30;3.15;;;13.10;99.90;;;;;;4950139;28;20051;-50
2023/07/25 02:39:08;;;;;;;15.70;3.72;;;13.10;99.90;;;;;;4949490;28;20046;-51
2023/07/25 02:41:34;;;;;;;10.02;3.00;;;13.20;99.90;;;;;;4953089;28;20050;-49
2023/07/25 02:44:01;;;;;;;8.00;2.90;;;13.10;99.90;;;;;;4948439;28;20418;-51
2023/07/25 02:46:26;;;;;;;8.60;3.22;;;13.20;99.90;;;;;;4943470;28;20409;-49
2023/07/25 02:48:52;;;;;;;10.65;3.35;;;13.20;99.90;;;;;;4944021;28;20051;-49
2023/07/25 02:51:18;;;;;;;8.43;3.20;;;13.20;99.90;;;;;;4950793;28;20104;-49
2023/07/25 02:53:44;;;;;;;8.10;3.00;;;13.20;99.90;;;;;;4947932;28;20117;-48
2023/07/25 02:56:09;;;;;;;6.43;3.20;;;13.20;99.90;;;;;;4942165;28;20047;-50
2023/07/25 02:58:35;;;;;;;7.85;3.08;;;13.20;99.90;;;;;;4948153;28;20043;-51
2023/07/25 03:01:01;;;;;;;8.75;3.50;;;13.20;99.90;;;;;;4935297;28;20416;-50
2023/07/25 03:03:26;;;;;;;8.82;3.33;;;13.20;99.90;;;;;;4948945;28;20112;-49
2023/07/25 03:05:52;;;;;;;8.30;3.28;;;13.20;99.90;;;;;;4949841;28;20047;-48
2023/07/25 03:08:18;;;;;;;11.23;3.47;;;13.20;99.90;;;;;;4932286;28;20047;-48
2023/07/25 03:10:44;;;;;;;10.68;3.50;;;13.20;99.90;;;;;;4934347;28;20126;-49
2023/07/25 03:13:10;;;;;;;7.95;3.20;;;13.30;99.90;;;;;;4951523;28;20030;-50
2023/07/25 03:15:36;;;;;;;12.23;3.30;;;13.30;99.90;;;;;;4948336;28;20122;-49
2023/07/25 03:18:02;;;;;;;7.03;3.30;;;13.30;99.90;;;;;;4948925;28;20069;-49
2023/07/25 03:20:28;;;;;;;6.45;2.75;;;13.30;99.90;;;;;;4947844;28;20051;-48
2023/07/25 03:22:54;;;;;;;7.68;3.15;;;13.40;99.90;;;;;;4948603;28;20556;-50
2023/07/25 03:25:19;;;;;;;9.05;3.65;;;13.40;99.90;;;;;;4947045;28;20054;-50
2023/07/25 03:27:45;;;;;;;12.80;2.90;;;13.40;99.90;;;;;;4947608;28;20054;-50
2023/07/25 03:30:11;;;;;;;7.50;2.72;;;13.40;99.90;;;;;;4949175;28;20987;-49
2023/07/25 03:32:37;;;;;;;6.88;2.90;;;13.50;99.90;;;;;;4948608;28;20486;-50
2023/07/25 03:35:03;;;;;;;7.20;3.17;;;13.50;99.90;;;;;;4947507;28;20674;-51
2023/07/25 03:37:29;;;;;;;8.45;2.95;;;13.50;99.90;;;;;;4948879;28;20565;-49
2023/07/25 03:39:54;;;;;;;7.60;3.10;;;13.50;99.90;;;;;;4936241;28;20050;-49
2023/07/25 03:42:20;;;;;;;9.38;3.40;;;13.50;99.90;;;;;;4962098;28;20121;-50
2023/07/25 03:44:46;;;;;;;11.10;3.33;;;13.40;99.90;;;;;;4948704;28;20399;-49
2023/07/25 03:47:11;;;;;;;6.70;2.90;;;13.30;99.90;;;;;;4949881;28;20051;-49
2023/07/25 03:49:37;;;;;;;6.55;2.92;;;13.40;99.90;;;;;;4947451;28;20043;-49
2023/07/25 03:52:03;;;;;;;11.93;3.03;;;13.40;99.90;;;;;;4951175;28;20038;-48
2023/07/25 03:54:29;;;;;;;8.73;3.33;;;13.40;99.90;;;;;;4945870;28;20047;-50
2023/07/25 03:56:54;;;;;;;9.20;3.45;;;13.40;99.90;;;;;;4921188;28;20070;-49
2023/07/25 03:59:20;;;;;;;7.50;3.20;;;13.30;99.90;;;;;;4939203;28;20932;-49
2023/07/25 04:01:46;;;;;;;15.70;3.20;;;13.30;99.90;;;;;;4947055;28;20072;-50
2023/07/25 04:04:12;;;;;;;11.70;3.58;;;13.30;99.90;;;;;;4950711;28;20503;-49
2023/07/25 04:06:38;;;;;;;9.98;3.05;;;13.30;99.90;;;;;;4928598;28;20051;-50
2023/07/25 04:09:04;;;;;;;9.23;3.40;;;13.30;99.90;;;;;;4915132;28;20040;-49
2023/07/25 04:11:30;;;;;;;8.02;3.28;;;13.30;99.90;;;;;;4936496;28;20051;-49
2023/07/25 04:13:56;;;;;;;9.50;3.42;;;13.30;99.90;;;;;;4946612;28;20047;-49
2023/07/25 04:16:22;;;;;;;9.93;3.53;;;13.20;99.90;;;;;;4932907;28;20703;-50
2023/07/25 04:18:48;;;;;;;8.27;2.95;;;13.30;99.90;;;;;;4951908;28;20338;-51
2023/07/25 04:21:14;;;;;;;13.95;3.70;;;13.30;99.90;;;;;;4925928;28;20051;-49
2023/07/25 04:23:39;;;;;;;8.27;2.78;;;13.30;99.90;;;;;;4897778;29;20385;-49
2023/07/25 04:26:05;;;;;;;7.18;2.90;;;13.20;99.90;;;;;;4931997;28;20103;-49
2023/07/25 04:28:31;;;;;;;8.88;3.10;;;13.20;99.90;;;;;;4928782;28;21227;-48
2023/07/25 04:30:57;;;;;;;10.05;3.42;;;13.20;99.90;;;;;;4929018;28;20600;-48
2023/07/25 04:33:22;;;;;;;8.57;2.90;;;13.20;99.90;;;;;;4926589;28;20121;-49
2023/07/25 04:35:48;;;;;;;11.02;3.22;;;13.30;99.90;;;;;;4925724;28;20035;-49
2023/07/25 04:38:14;;;;;;;9.48;3.08;;;13.20;99.90;;;;;;4927669;28;20054;-49
2023/07/25 04:40:41;;;;;;;10.13;3.05;;;13.20;99.90;;;;;;4931180;28;20047;-50
2023/07/25 04:43:07;;;;;;;11.05;3.28;;;13.20;99.90;;;;;;4914094;28;20130;-49
2023/07/25 04:45:33;;;;;;;9.43;2.70;;;13.20;99.90;;;;;;4929627;28;20037;-49
2023/07/25 04:47:59;;;;;;;7.80;2.53;;;13.20;99.90;;;;;;4926715;28;20058;-49
2023/07/25 04:50:24;;;;;;;9.63;2.70;;;13.20;99.90;;;;;;4909951;28;20700;-50
2023/07/25 04:52:50;;;;;;;6.55;2.58;;;13.30;99.90;;;;;;4925882;28;20538;-49
2023/07/25 04:55:16;;;;;;;11.52;3.00;;;13.40;99.90;;;;;;4914936;28;20048;-48
2023/07/25 04:57:41;;;;;;;8.85;2.92;;;13.40;99.90;;;;;;4925455;28;21553;-50
2023/07/25 05:00:09;;;;;;;9.85;2.50;;;13.40;99.90;;;;;;4921268;28;20086;-49
2023/07/25 05:02:35;;;;;;;7.97;2.50;;;13.50;99.90;;;;;;4903800;28;20055;-48
2023/07/25 05:05:01;;;;;;;9.32;2.75;;;13.40;99.90;;;;;;4929160;28;20053;-49
2023/07/25 05:07:26;;;;;;;8.02;2.53;;;13.40;99.90;;;;;;4929559;28;20040;-49
2023/07/25 05:09:52;;;;;;;12.98;2.58;;;13.40;99.90;;;;;;4928612;28;20379;-51
2023/07/25 05:12:18;;;;;;;8.02;2.53;;;13.40;99.90;;;;;;4913431;28;20063;-49
2023/07/25 05:14:43;;;;;;;6.13;2.30;;;13.40;99.90;;;;;;4922216;28;20047;-48
2023/07/25 05:17:09;;;;;;;10.18;2.97;;;13.40;99.90;;;;;;4927373;28;20667;-49
2023/07/25 05:19:35;;;;;;;7.68;2.75;;;13.30;99.90;;;;;;4940435;28;20196;-50
2023/07/25 05:22:01;;;;;;;9.80;2.78;;;13.30;99.90;;;;;;4950620;28;20437;-52
2023/07/25 05:24:26;;;;;;;9.23;2.90;;;13.40;99.90;;;;;;4966488;28;20128;-50
2023/07/25 05:26:52;;;;;;;14.60;2.80;;;13.30;99.90;;;;;;4963495;28;20070;-50
2023/07/25 05:29:18;;;;;;;8.02;2.35;;;13.30;99.90;;;;;;4962585;28;20056;-49
2023/07/25 05:31:43;;;;;;;5.72;2.28;;;13.40;99.90;;;;;;4962298;28;20137;-49
2023/07/25 05:34:09;;;;;;;8.32;2.40;;;13.40;99.90;;;;;;4960507;28;20042;-49
2023/07/25 05:36:35;;;;;;;8.77;2.80;;;13.40;99.90;;;;;;4960491;28;20042;-48
2023/07/25 05:39:00;;;;;;;12.40;2.58;;;13.40;99.90;;;;;;4964659;28;20384;-49
2023/07/25 05:41:26;;;;;;;11.98;2.63;;;13.40;99.90;;;;;;4965758;28;20102;-50
2023/07/25 05:43:52;;;;;;;13.57;2.78;;;13.50;99.90;;;;;;4964752;28;20054;-48
2023/07/25 05:46:17;;;;;;;7.38;2.53;;;13.40;99.90;;;;;;4967216;28;20067;-51
2023/07/25 05:48:43;;;;;;;10.48;3.25;;;13.40;99.90;;;;;;4962341;28;20097;-49
2023/07/25 05:51:12;;;;;;;10.43;2.83;;;13.40;99.90;;;;;;4963903;28;20070;-48
2023/07/25 05:53:37;;;;;;;8.40;2.30;;;13.40;99.90;;;;;;4965301;28;20583;-49
2023/07/25 05:56:03;;;;;;;8.90;2.50;;;13.40;99.90;;;;;;4957396;28;20411;-50
2023/07/25 05:58:30;;;;;;;9.65;2.53;;;13.40;99.90;;;;;;4955699;28;20050;-49
2023/07/25 06:00:56;;;;;;;11.00;2.58;;;13.40;99.90;;;;;;4953087;28;20452;-52
2023/07/25 06:03:22;;;;;;;9.73;2.75;;;13.40;99.90;;;;;;4948338;28;20050;-48
2023/07/25 06:05:48;;;;;;;9.43;2.20;;;13.40;99.90;;;;;;4961036;28;20054;-49
2023/07/25 06:08:14;;;;;;;8.75;2.33;;;13.50;99.90;;;;;;4971584;28;20054;-48
2023/07/25 06:10:40;;;;;;;9.05;2.67;;;13.50;99.90;;;;;;4970471;28;20073;-49
2023/07/25 06:13:06;;;;;;;8.70;2.00;;;13.60;99.90;;;;;;4972512;28;20397;-48
2023/07/25 06:15:34;;;;;;;6.30;2.17;;;13.70;99.90;;;;;;4968665;28;20061;-47
2023/07/25 06:18:04;;;;;;;12.43;2.25;;;13.80;99.90;;;;;;4969426;28;20082;-50
2023/07/25 06:20:33;;;;;;;11.32;2.75;;;13.90;99.90;;;;;;4982271;28;20623;-47
2023/07/25 06:23:00;;;;;;;9.43;2.03;;;14.00;99.90;;;;;;4953597;28;20615;-47
2023/07/25 06:25:26;;;;;;;6.97;1.73;;;14.00;99.90;;;;;;4971299;28;20077;-49
2023/07/25 06:27:52;;;;;;;6.63;1.90;;;14.10;99.90;;;;;;4969136;28;20054;-51
2023/07/25 06:30:18;;;;;;;8.38;1.77;;;14.20;99.90;;;;;;4968977;28;20057;-47
2023/07/25 06:32:44;;;;;;;8.05;2.03;;;14.30;99.90;;;;;;4970704;28;20042;-47
2023/07/25 06:35:10;;;;;;;7.30;1.48;;;14.40;99.90;;;;;;4969066;28;20043;-49
2023/07/25 06:37:36;;;;;;;12.57;2.13;;;14.50;99.90;;;;;;4970138;28;20769;-47
2023/07/25 06:40:03;;;;;;;11.57;2.15;;;14.60;99.90;;;;;;4969847;28;20400;-47
2023/07/25 06:42:29;;;;;;;5.45;1.48;;;14.70;99.90;;;;;;4967856;28;20507;-50
2023/07/25 06:44:57;;;;;;;7.10;1.75;;;14.80;99.90;;;;;;4967328;28;20058;-47
2023/07/25 06:47:23;;;;;;;8.07;1.92;;;14.90;99.90;;;;;;4966262;28;20057;-47
2023/07/25 06:49:49;;;;;;;5.28;1.65;;;15.00;99.90;;;;;;4967646;28;20041;-49
2023/07/25 06:52:15;;;;;;;6.53;1.90;;;15.00;99.90;;;;;;4956423;28;20130;-47
2023/07/25 06:54:42;;;;;;;4.90;1.20;;;15.10;99.90;;;;;;4965676;28;20085;-50
2023/07/25 06:57:08;;;;;;;6.80;1.58;;;15.20;99.90;;;;;;4967739;28;20052;-47
2023/07/25 06:59:34;;;;;;;4.70;1.15;;;15.30;99.90;;;;;;4949099;28;20049;-47
2023/07/25 07:01:59;;;;;;;6.88;1.30;;;15.40;99.90;;;;;;4970001;28;20047;-47
2023/07/25 07:04:25;;;;;;;5.25;0.90;;;15.40;99.90;;;;;;4969389;28;20050;-47
2023/07/25 07:06:51;;;;;;;4.15;0.90;;;15.50;99.90;;;;;;4968624;28;21015;-49
2023/07/25 07:09:16;;;;;;;3.78;0.95;;;15.40;99.90;;;;;;4954199;28;20034;-47
2023/07/25 07:11:42;;;;;;;4.05;1.00;;;15.50;99.90;;;;;;4958906;28;20050;-47
2023/07/25 07:14:08;;;;;;;13.02;1.80;;;15.50;99.90;;;;;;4950476;28;20488;-48
2023/07/25 07:16:34;;;;;;;3.17;0.90;;;15.50;99.90;;;;;;4970251;28;20042;-51
2023/07/25 07:18:59;;;;;;;4.07;1.00;;;15.60;99.90;;;;;;4968879;28;20038;-47
2023/07/25 07:21:25;;;;;;;6.30;1.20;;;15.70;99.90;;;;;;4964874;28;20870;-47
2023/07/25 07:23:51;;;;;;;9.32;1.20;;;15.80;99.90;;;;;;4952099;28;20053;-47
2023/07/25 07:26:17;;;;;;;4.97;1.02;;;15.90;99.90;;;;;;4965482;28;20050;-48
2023/07/25 07:28:43;;;;;;;7.55;1.00;;;16.00;99.90;;;;;;4952278;28;20042;-49
2023/07/25 07:31:09;;;;;;;5.97;1.20;;;16.10;99.90;;;;;;4967225;28;20037;-49
2023/07/25 07:33:35;;;;;;;5.80;0.88;;;16.20;99.90;;;;;;4969884;28;20057;-48
2023/07/25 07:36:01;;;;;;;3.53;0.88;;;16.30;99.90;;;;;;4966396;28;20085;-47
2023/07/25 07:38:27;;;;;;;3.88;0.95;;;16.30;99.90;;;;;;4965081;28;20054;-49
2023/07/25 07:40:53;;;;;;;3.75;1.17;;;16.40;99.90;;;;;;4968254;28;20325;-49
2023/07/25 07:43:19;;;;;;;5.20;0.95;;;16.50;99.90;;;;;;4950721;28;20051;-49
2023/07/25 07:45:45;;;;;;;4.57;1.00;;;16.70;99.90;;;;;;4969014;28;20041;-49
2023/07/25 07:48:11;;;;;;;5.88;1.00;;;16.80;99.90;;;;;;4965122;28;20062;-47
2023/07/25 07:50:36;;;;;;;12.02;1.52;;;16.80;99.90;;;;;;4969512;28;20870;-48
2023/07/25 07:53:03;;;;;;;10.85;1.35;;;16.90;99.90;;;;;;4963585;28;20089;-50
2023/07/25 07:55:29;;;;;;;5.65;1.33;;;16.90;99.90;;;;;;4967344;28;20050;-48
2023/07/25 07:57:55;;;;;;;7.60;1.20;;;17.00;99.90;;;;;;4968525;28;20077;-48
2023/07/25 08:00:21;;;;;;;8.38;1.38;;;17.10;99.90;;;;;;4967186;28;20916;-48
2023/07/25 08:02:47;;;;;;;7.43;1.13;;;17.10;99.90;;;;;;4966582;28;20046;-48
2023/07/25 08:05:13;;;;;;;4.93;1.00;;;17.00;99.90;;;;;;4970612;28;20628;-47
2023/07/25 08:07:39;;;;;;;7.50;0.85;;;16.90;99.90;;;;;;4967940;28;20040;-48
2023/07/25 08:10:06;;;;;;;5.30;1.40;;;16.80;99.90;;;;;;4952551;28;20056;-49
2023/07/25 08:12:32;;;;;;;3.38;1.05;;;16.90;99.90;;;;;;4968037;28;20593;-47
2023/07/25 08:14:58;;;;;;;2.97;0.90;;;17.00;99.90;;;;;;4950043;28;20484;-47
2023/07/25 08:17:24;;;;;;;4.78;0.93;;;17.10;99.90;;;;;;4967591;28;20062;-48
2023/07/25 08:19:50;;;;;;;3.97;0.90;;;17.30;99.90;;;;;;4967811;28;20141;-48
2023/07/25 08:22:16;;;;;;;7.18;1.08;;;17.40;99.90;;;;;;4949300;28;20058;-47
2023/07/25 08:24:42;;;;;;;5.10;1.38;;;17.60;99.90;;;;;;4966283;28;20084;-49
2023/07/25 08:27:08;;;;;;;5.22;1.40;;;17.60;99.90;;;;;;4966034;28;20043;-48
2023/07/25 08:29:39;;;;;;;8.43;1.15;;;17.70;99.90;;;;;;4967779;28;20038;-48
2023/07/25 08:32:06;;;;;;;4.47;1.25;;;17.80;99.90;;;;;;4966612;28;20552;-48
2023/07/25 08:34:32;;;;;;;6.00;1.20;;;18.00;99.90;;;;;;4968118;28;20051;-48
2023/07/25 08:36:57;;;;;;;5.45;1.40;;;18.00;99.90;;;;;;4951115;28;20074;-47
2023/07/25 08:39:23;;;;;;;4.63;0.90;;;18.10;99.90;;;;;;4966342;28;20045;-47
2023/07/25 08:41:53;;;;;;;7.20;1.40;;;18.20;99.90;;;;;;4965475;28;20480;-48
2023/07/25 08:44:24;;;;;;;6.25;1.10;;;18.40;99.90;;;;;;4969178;28;20046;-48
2023/07/25 08:46:52;;;;;;;4.20;0.93;;;18.40;99.90;;;;;;4967257;28;20594;-49
2023/07/25 08:49:25;;;;;;;5.57;0.90;;;18.60;99.90;;;;;;4963214;28;20047;-47
2023/07/25 08:51:54;;;;;;;5.63;1.00;;;18.80;99.10;;;;;;4966470;28;20038;-47
2023/07/25 08:54:31;;;;;;;3.17;1.00;;;18.90;99.00;;;;;;4946836;28;20129;-48
2023/07/25 08:56:57;;;;;;;8.73;1.25;;;19.10;98.70;;;;;;4964231;28;20054;-49
2023/07/25 08:59:24;;;;;;;4.22;1.00;;;19.30;98.30;;;;;;4965610;28;20125;-47
2023/07/25 09:01:51;;;;;;;4.00;1.10;;;19.40;98.10;;;;;;4966501;28;20049;-48
2023/07/25 09:04:19;;;;;;;3.97;1.30;;;19.50;97.60;;;;;;4965672;28;20101;-48
2023/07/25 09:06:45;;;;;;;4.50;0.98;;;19.60;97.30;;;;;;4965678;28;20055;-47
2023/07/25 09:09:11;;;;;;;2.80;0.90;;;19.60;97.00;;;;;;4963700;28;20046;-47
2023/07/25 09:11:36;;;;;;;5.65;0.90;;;19.80;96.70;;;;;;4965519;28;20046;-46
2023/07/25 09:14:03;;;;;;;2.58;0.90;;;19.70;96.10;;;;;;4966713;28;20038;-47
2023/07/25 09:16:30;;;;;;;4.00;0.80;;;19.60;96.20;;;;;;4961230;28;20847;-48
2023/07/25 09:18:55;;;;;;;2.75;0.85;;;19.50;96.00;;;;;;4946443;28;20167;-48
2023/07/25 09:21:21;;;;;;;1.67;0.80;;;19.40;96.20;;;;;;4953807;28;20530;-52
2023/07/25 09:23:56;;;;;;;3.50;1.30;;;19.20;96.30;;;;;;4966135;28;20057;-49
2023/07/25 09:26:26;;;;;;;6.60;1.10;;;19.30;96.60;;;;;;4964962;28;20543;-50
2023/07/25 09:28:54;;;;;;;6.45;1.17;;;19.40;97.30;;;;;;4966277;28;20054;-48
2023/07/25 09:31:21;;;;;;;5.95;1.38;;;19.40;97.20;;;;;;4946443;28;20045;-49
2023/07/25 09:33:49;;;;;;;4.40;0.90;;;19.40;97.30;;;;;;4964700;28;20055;-47
2023/07/25 09:36:15;;;;;;;5.05;1.27;;;19.40;97.50;;;;;;4968920;28;20122;-47
2023/07/25 09:38:55;;;;;;;4.00;1.17;;;19.40;97.60;;;;;;4940371;28;20090;-47
2023/07/25 09:41:23;;;;;;;4.88;0.98;;;19.60;98.00;;;;;;4967050;28;20059;-48
2023/07/25 09:43:50;;;;;;;5.70;1.40;;;19.90;97.40;;;;;;4969842;28;20452;-48
2023/07/25 09:46:15;;;;;;;7.35;1.00;;;20.10;96.90;;;;;;4953420;28;20498;-47
2023/07/25 09:48:46;;;;;;;5.47;1.30;;;20.10;96.40;;;;;;4968343;28;20722;-49
2023/07/25 09:51:12;;;;;;;4.32;1.00;;;20.10;96.10;;;;;;4982543;28;20074;-47
2023/07/25 09:53:42;;;;;;;4.43;1.27;;;19.90;96.10;;;;;;4969997;28;20038;-48
2023/07/25 09:56:08;;;;;;;6.88;1.33;;;19.80;95.80;;;;;;4971650;28;20392;-48
2023/07/25 09:58:35;;;;;;;7.60;1.90;;;19.70;95.70;;;;;;4952299;28;20109;-47
2023/07/25 10:01:02;;;;;;;2.83;1.02;;;19.70;95.70;;;;;;4955148;28;20034;-48
2023/07/25 10:03:29;;;;;;;6.70;1.48;;;19.60;95.50;;;;;;4967026;28;20691;-48
2023/07/25 10:05:56;;;;;;;3.92;1.33;;;19.70;95.90;;;;;;4971120;28;20039;-48
2023/07/25 10:08:25;;;;;;;4.57;1.40;;;19.80;96.30;;;;;;4969818;28;20176;-48
2023/07/25 10:10:54;;;;;;;7.72;1.60;;;19.80;96.00;;;;;;4970653;28;20404;-47
2023/07/25 10:13:20;;;;;;;4.82;1.05;;;19.80;95.40;;;;;;4968666;28;20073;-48
2023/07/25 10:15:46;;;;;;;7.65;1.38;;;19.70;95.30;;;;;;4968539;28;20042;-49
2023/07/25 10:18:23;;;;;;;6.90;1.38;;;19.70;95.20;;;;;;4968382;28;20046;-50
2023/07/25 10:20:51;;;;;;;3.92;1.00;;;19.60;95.10;;;;;;4967099;28;20583;-48
2023/07/25 10:23:17;;;;;;;2.28;0.80;;;19.40;95.10;;;;;;4961001;28;20130;-47
2023/07/25 10:25:43;;;;;;;4.22;1.05;;;19.40;95.10;;;;;;4953226;28;20058;-48
2023/07/25 10:28:11;;;;;;;8.85;1.33;;;19.60;94.90;;;;;;4968160;28;20046;-49
2023/07/25 10:30:45;;;;;;;6.53;1.00;;;19.90;94.40;;;;;;4960191;28;20197;-48
2023/07/25 10:33:15;;;;;;;5.00;1.20;;;20.30;94.10;;;;;;4965948;28;20049;-48
2023/07/25 10:35:52;;;;;;;13.48;1.35;;;20.60;93.70;;;;;;4967999;28;20055;-47
2023/07/25 10:38:36;;;;;;;6.78;1.15;;;20.60;92.70;;;;;;4968949;28;20042;-47
2023/07/25 10:41:13;;;;;;;4.88;1.20;;;20.40;92.90;;;;;;4968030;28;20061;-46
2023/07/25 10:43:44;;;;;;;6.38;1.20;;;20.20;92.90;;;;;;4969728;28;20078;-49
2023/07/25 10:46:14;;;;;;;5.68;1.15;;;20.00;92.60;;;;;;4966416;28;20043;-48
2023/07/25 10:49:04;;;;;;;6.15;1.23;;;19.80;92.90;;;;;;4964399;28;20074;-48
2023/07/25 10:51:50;;;;;;;4.00;0.90;;;19.90;93.20;;;;;;4968717;28;20495;-49
2023/07/25 10:54:17;;;;;;;8.25;1.35;;;20.30;93.00;;;;;;4970185;28;20043;-47
2023/07/25 10:57:06;;;;;;;4.80;1.20;;;20.40;92.50;;;;;;4968736;28;20054;-50
2023/07/25 10:59:32;;;;;;;4.43;1.08;;;20.30;91.90;;;;;;4967697;28;20038;-50
2023/07/25 11:01:58;;;;;;;3.55;1.13;;;20.20;91.60;;;;;;4965981;28;20053;-47
2023/07/25 11:04:31;;;;;;;3.42;0.88;;;20.30;91.90;;;;;;4968287;28;20042;-48
2023/07/25 11:07:12;;;;;;;5.07;1.00;;;20.50;92.00;;;;;;4967582;28;20094;-48
2023/07/25 11:09:40;;;;;;;4.95;1.48;;;20.90;91.00;;;;;;4965876;28;20044;-46
2023/07/25 11:12:07;;;;;;;6.10;0.90;;;21.10;90.30;;;;;;4969886;28;20050;-49
2023/07/25 11:14:39;;;;;;;3.13;1.00;;;21.30;89.90;;;;;;4965798;28;20539;-47
2023/07/25 11:17:05;;;;;;;8.77;0.93;;;21.50;89.70;;;;;;4971793;28;20051;-49
2023/07/25 11:19:30;;;;;;;8.05;0.82;;;21.90;88.50;;;;;;4963925;28;20051;-49
2023/07/25 11:21:56;;;;;;;5.03;0.82;;;22.20;87.30;;;;;;4964555;28;20062;-47
2023/07/25 11:24:22;;;;;;;3.67;0.90;;;22.30;85.40;;;;;;4967768;28;20619;-48
2023/07/25 11:26:48;;;;;;;3.17;1.02;;;22.10;85.30;;;;;;4969113;28;20046;-49
2023/07/25 11:29:13;;;;;;;4.97;1.00;;;21.90;84.00;;;;;;4970065;28;20042;-48
2023/07/25 11:31:50;;;;;;;4.70;1.10;;;21.60;83.70;;;;;;4966549;28;20429;-49
2023/07/25 11:34:20;;;;;;;4.05;0.90;;;21.60;85.10;;;;;;4957755;28;20085;-48
2023/07/25 11:36:46;;;;;;;3.35;0.90;;;21.80;83.10;;;;;;4966080;28;20151;-49
2023/07/25 11:39:12;;;;;;;5.10;1.33;;;21.70;82.10;;;;;;4967907;28;20038;-48
2023/07/25 11:41:39;;;;;;;3.28;0.90;;;21.60;82.10;;;;;;4956489;28;20054;-49
2023/07/25 11:44:09;;;;;;;2.15;0.85;;;21.50;83.20;;;;;;4968327;28;20389;-50
2023/07/25 11:46:36;;;;;;;4.55;1.00;;;21.30;82.90;;;;;;4966513;28;20046;-49
2023/07/25 11:49:03;;;;;;;3.85;1.25;;;21.20;84.20;;;;;;4963191;28;20057;-48
2023/07/25 11:51:30;;;;;;;5.15;1.10;;;21.20;83.90;;;;;;4967742;28;20043;-48
2023/07/25 11:53:56;;;;;;;4.22;0.77;;;21.20;83.60;;;;;;4965700;28;20054;-48
2023/07/25 11:56:23;;;;;;;2.40;0.70;;;21.20;83.30;;;;;;4969096;28;20145;-47
2023/07/25 11:58:49;;;;;;;4.22;0.90;;;21.10;83.40;;;;;;4963945;28;20061;-47
2023/07/25 12:01:17;;;;;;;2.72;0.90;;;21.00;83.60;;;;;;4964780;28;20057;-47
2023/07/25 12:03:48;;;;;;;5.43;1.27;;;21.00;84.20;;;;;;4967719;28;20181;-48
2023/07/25 12:06:13;;;;;;;2.13;0.73;;;20.90;83.80;;;;;;4969154;28;20141;-48
2023/07/25 12:08:45;;;;;;;4.13;0.80;;;20.80;83.80;;;;;;4967794;28;20493;-48
2023/07/25 12:11:13;;;;;;;3.35;0.80;;;20.70;85.00;;;;;;4966304;28;20074;-47
2023/07/25 12:13:57;;;;;;;1.38;0.80;;;20.70;84.80;;;;;;4966487;28;20725;-48
2023/07/25 12:16:35;;;;;;;2.40;0.90;;;20.90;85.30;;;;;;4968208;28;20081;-49
2023/07/25 12:19:13;;;;;;;3.45;1.00;;;21.20;85.50;;;;;;4964334;28;20057;-47
2023/07/25 12:21:41;;;;;;;4.75;1.00;;;21.40;85.50;;;;;;4965347;28;20051;-48
2023/07/25 12:24:13;;;;;;;4.78;1.00;;;21.80;85.40;;;;;;4967426;28;20039;-48
2023/07/25 12:26:45;;;;;;;5.07;1.00;;;21.90;84.00;;;;;;4970378;28;20599;-47
2023/07/25 12:29:21;;;;;;;3.40;0.77;;;21.80;82.50;;;;;;4951850;28;20057;-49
2023/07/25 12:31:47;;;;;;;2.92;0.90;;;21.90;80.80;;;;;;4965292;28;20077;-49
2023/07/25 12:34:23;;;;;;;5.90;1.08;;;22.20;80.70;;;;;;4966656;28;20047;-47
2023/07/25 12:36:50;;;;;;;4.32;0.80;;;22.50;80.30;;;;;;4964596;28;20643;-46
2023/07/25 12:39:16;;;;;;;3.70;0.90;;;22.80;80.00;;;;;;4968910;28;20034;-47
2023/07/25 12:41:45;;;;;;;2.55;0.90;;;22.70;79.20;;;;;;4965893;28;20497;-47
2023/07/25 12:44:11;;;;;;;6.00;1.00;;;22.50;79.40;;;;;;4959134;28;20117;-47